<?xml version="1.0" encoding="UTF-8" standalone="no" ?>
<gpx xmlns="http://www.topografix.com/GPX/1/1" xmlns:xsi="http://www.w3.org/2001/XMLSchema-instance" xsi:schemaLocation="http://www.topografix.com/GPX/1/1 http://www.topografix.com/GPX/1/1/gpx.xsd" version="1.1" creator="VisuGPX - https://www.visugpx.com">
  <metadata>
    <name>Sortie voile Caminar du 23/09/16</name>
    <desc><![CDATA[Sortie voile du 23/0/2016. Vent de force 2 à 3, secteur NNO.]]></desc>
  </metadata>
  <trk>
    <name><![CDATA[ONmove 100 - 23/09/2016]]></name>
    <trkseg>
      <trkpt lat="44.49417" lon="-1.07989">
        <ele>21</ele>
        <time>2016-09-23T12:36:39Z</time>
      </trkpt>
      <trkpt lat="44.49369" lon="-1.08109">
        <ele>20</ele>
        <time>2016-09-23T12:40:30Z</time>
      </trkpt>
      <trkpt lat="44.49322" lon="-1.08223">
        <ele>20</ele>
        <time>2016-09-23T12:42:19Z</time>
      </trkpt>
      <trkpt lat="44.49275" lon="-1.08342">
        <ele>20</ele>
        <time>2016-09-23T12:44:38Z</time>
      </trkpt>
      <trkpt lat="44.49237" lon="-1.08463">
        <ele>20</ele>
        <time>2016-09-23T12:46:05Z</time>
      </trkpt>
      <trkpt lat="44.49207" lon="-1.0859">
        <ele>20</ele>
        <time>2016-09-23T12:46:57Z</time>
      </trkpt>
      <trkpt lat="44.4917" lon="-1.0872">
        <ele>20</ele>
        <time>2016-09-23T12:47:59Z</time>
      </trkpt>
      <trkpt lat="44.49145" lon="-1.08851">
        <ele>20</ele>
        <time>2016-09-23T12:49:07Z</time>
      </trkpt>
      <trkpt lat="44.49116" lon="-1.08977">
        <ele>20</ele>
        <time>2016-09-23T12:50:08Z</time>
      </trkpt>
      <trkpt lat="44.49079" lon="-1.09103">
        <ele>20</ele>
        <time>2016-09-23T12:51:38Z</time>
      </trkpt>
      <trkpt lat="44.4907" lon="-1.09242">
        <ele>20</ele>
        <time>2016-09-23T12:52:45Z</time>
      </trkpt>
      <trkpt lat="44.49069" lon="-1.09381">
        <ele>20</ele>
        <time>2016-09-23T12:53:53Z</time>
      </trkpt>
      <trkpt lat="44.49068" lon="-1.09513">
        <ele>20</ele>
        <time>2016-09-23T12:54:53Z</time>
      </trkpt>
      <trkpt lat="44.49074" lon="-1.09646">
        <ele>20</ele>
        <time>2016-09-23T12:56:12Z</time>
      </trkpt>
      <trkpt lat="44.49084" lon="-1.09786">
        <ele>20</ele>
        <time>2016-09-23T12:57:48Z</time>
      </trkpt>
      <trkpt lat="44.49086" lon="-1.09923">
        <ele>20</ele>
        <time>2016-09-23T13:00:44Z</time>
      </trkpt>
      <trkpt lat="44.49124" lon="-1.1005">
        <ele>20</ele>
        <time>2016-09-23T13:01:41Z</time>
      </trkpt>
      <trkpt lat="44.49154" lon="-1.10173">
        <ele>20</ele>
        <time>2016-09-23T13:02:50Z</time>
      </trkpt>
      <trkpt lat="44.49155" lon="-1.10314">
        <ele>20</ele>
        <time>2016-09-23T13:05:27Z</time>
      </trkpt>
      <trkpt lat="44.49149" lon="-1.10447">
        <ele>20</ele>
        <time>2016-09-23T13:06:28Z</time>
      </trkpt>
      <trkpt lat="44.49179" lon="-1.10576">
        <ele>20</ele>
        <time>2016-09-23T13:07:22Z</time>
      </trkpt>
      <trkpt lat="44.49205" lon="-1.10713">
        <ele>20</ele>
        <time>2016-09-23T13:08:31Z</time>
      </trkpt>
      <trkpt lat="44.49159" lon="-1.1084">
        <ele>20</ele>
        <time>2016-09-23T13:09:50Z</time>
      </trkpt>
      <trkpt lat="44.49141" lon="-1.10973">
        <ele>20</ele>
        <time>2016-09-23T13:11:29Z</time>
      </trkpt>
      <trkpt lat="44.49156" lon="-1.11109">
        <ele>20</ele>
        <time>2016-09-23T13:12:46Z</time>
      </trkpt>
      <trkpt lat="44.49148" lon="-1.11204">
        <ele>20</ele>
        <time>2016-09-23T13:13:30Z</time>
      </trkpt>
      <trkpt lat="44.49154" lon="-1.11297">
        <ele>20</ele>
        <time>2016-09-23T13:14:11Z</time>
      </trkpt>
      <trkpt lat="44.49154" lon="-1.11393">
        <ele>20</ele>
        <time>2016-09-23T13:14:53Z</time>
      </trkpt>
      <trkpt lat="44.49149" lon="-1.11483">
        <ele>20</ele>
        <time>2016-09-23T13:15:39Z</time>
      </trkpt>
      <trkpt lat="44.4914" lon="-1.1158">
        <ele>20</ele>
        <time>2016-09-23T13:16:31Z</time>
      </trkpt>
      <trkpt lat="44.49142" lon="-1.11679">
        <ele>20</ele>
        <time>2016-09-23T13:17:28Z</time>
      </trkpt>
      <trkpt lat="44.49169" lon="-1.11766">
        <ele>20</ele>
        <time>2016-09-23T13:18:09Z</time>
      </trkpt>
      <trkpt lat="44.49206" lon="-1.11847">
        <ele>20</ele>
        <time>2016-09-23T13:18:45Z</time>
      </trkpt>
      <trkpt lat="44.49286" lon="-1.11892">
        <ele>20</ele>
        <time>2016-09-23T13:19:52Z</time>
      </trkpt>
      <trkpt lat="44.49347" lon="-1.11804">
        <ele>20</ele>
        <time>2016-09-23T13:22:24Z</time>
      </trkpt>
      <trkpt lat="44.49377" lon="-1.11715">
        <ele>20</ele>
        <time>2016-09-23T13:23:27Z</time>
      </trkpt>
      <trkpt lat="44.49419" lon="-1.1163">
        <ele>20</ele>
        <time>2016-09-23T13:24:13Z</time>
      </trkpt>
      <trkpt lat="44.49466" lon="-1.11546">
        <ele>20</ele>
        <time>2016-09-23T13:25:16Z</time>
      </trkpt>
      <trkpt lat="44.49512" lon="-1.11478">
        <ele>20</ele>
        <time>2016-09-23T13:26:09Z</time>
      </trkpt>
      <trkpt lat="44.49554" lon="-1.11394">
        <ele>20</ele>
        <time>2016-09-23T13:27:12Z</time>
      </trkpt>
      <trkpt lat="44.49589" lon="-1.113">
        <ele>20</ele>
        <time>2016-09-23T13:28:25Z</time>
      </trkpt>
      <trkpt lat="44.4966" lon="-1.11351">
        <ele>20</ele>
        <time>2016-09-23T13:29:20Z</time>
      </trkpt>
      <trkpt lat="44.49655" lon="-1.11466">
        <ele>20</ele>
        <time>2016-09-23T13:30:25Z</time>
      </trkpt>
      <trkpt lat="44.49613" lon="-1.11544">
        <ele>20</ele>
        <time>2016-09-23T13:31:08Z</time>
      </trkpt>
      <trkpt lat="44.49565" lon="-1.11621">
        <ele>20</ele>
        <time>2016-09-23T13:31:58Z</time>
      </trkpt>
      <trkpt lat="44.49523" lon="-1.11701">
        <ele>20</ele>
        <time>2016-09-23T13:32:53Z</time>
      </trkpt>
      <trkpt lat="44.49504" lon="-1.11804">
        <ele>20</ele>
        <time>2016-09-23T13:33:44Z</time>
      </trkpt>
      <trkpt lat="44.49492" lon="-1.11912">
        <ele>20</ele>
        <time>2016-09-23T13:34:26Z</time>
      </trkpt>
      <trkpt lat="44.49436" lon="-1.11983">
        <ele>20</ele>
        <time>2016-09-23T13:35:28Z</time>
      </trkpt>
      <trkpt lat="44.49386" lon="-1.12054">
        <ele>20</ele>
        <time>2016-09-23T13:36:17Z</time>
      </trkpt>
      <trkpt lat="44.49336" lon="-1.12133">
        <ele>20</ele>
        <time>2016-09-23T13:36:57Z</time>
      </trkpt>
      <trkpt lat="44.49262" lon="-1.1223">
        <ele>20</ele>
        <time>2016-09-23T13:37:59Z</time>
      </trkpt>
      <trkpt lat="44.49192" lon="-1.12325">
        <ele>20</ele>
        <time>2016-09-23T13:39:19Z</time>
      </trkpt>
      <trkpt lat="44.49124" lon="-1.12427">
        <ele>20</ele>
        <time>2016-09-23T13:40:29Z</time>
      </trkpt>
      <trkpt lat="44.49056" lon="-1.12525">
        <ele>20</ele>
        <time>2016-09-23T13:41:23Z</time>
      </trkpt>
      <trkpt lat="44.48987" lon="-1.12629">
        <ele>20</ele>
        <time>2016-09-23T13:42:25Z</time>
      </trkpt>
      <trkpt lat="44.48918" lon="-1.12727">
        <ele>20</ele>
        <time>2016-09-23T13:43:33Z</time>
      </trkpt>
      <trkpt lat="44.48849" lon="-1.12829">
        <ele>20</ele>
        <time>2016-09-23T13:44:30Z</time>
      </trkpt>
      <trkpt lat="44.48787" lon="-1.12932">
        <ele>20</ele>
        <time>2016-09-23T13:45:21Z</time>
      </trkpt>
      <trkpt lat="44.48723" lon="-1.13034">
        <ele>20</ele>
        <time>2016-09-23T13:46:19Z</time>
      </trkpt>
      <trkpt lat="44.4865" lon="-1.13132">
        <ele>20</ele>
        <time>2016-09-23T13:47:19Z</time>
      </trkpt>
      <trkpt lat="44.4858" lon="-1.1323">
        <ele>20</ele>
        <time>2016-09-23T13:48:10Z</time>
      </trkpt>
      <trkpt lat="44.4851" lon="-1.13322">
        <ele>20</ele>
        <time>2016-09-23T13:48:58Z</time>
      </trkpt>
      <trkpt lat="44.48442" lon="-1.13426">
        <ele>20</ele>
        <time>2016-09-23T13:49:43Z</time>
      </trkpt>
      <trkpt lat="44.48381" lon="-1.13536">
        <ele>20</ele>
        <time>2016-09-23T13:50:34Z</time>
      </trkpt>
      <trkpt lat="44.48305" lon="-1.13624">
        <ele>20</ele>
        <time>2016-09-23T13:51:39Z</time>
      </trkpt>
      <trkpt lat="44.48235" lon="-1.13727">
        <ele>20</ele>
        <time>2016-09-23T13:52:41Z</time>
      </trkpt>
      <trkpt lat="44.48152" lon="-1.13834">
        <ele>20</ele>
        <time>2016-09-23T13:53:38Z</time>
      </trkpt>
      <trkpt lat="44.48111" lon="-1.13895">
        <ele>20</ele>
        <time>2016-09-23T13:54:02Z</time>
      </trkpt>
      <trkpt lat="44.48072" lon="-1.13956">
        <ele>20</ele>
        <time>2016-09-23T13:54:24Z</time>
      </trkpt>
      <trkpt lat="44.47991" lon="-1.14072">
        <ele>20</ele>
        <time>2016-09-23T13:55:10Z</time>
      </trkpt>
      <trkpt lat="44.4793" lon="-1.14205">
        <ele>20</ele>
        <time>2016-09-23T13:55:57Z</time>
      </trkpt>
      <trkpt lat="44.47875" lon="-1.14239">
        <ele>20</ele>
        <time>2016-09-23T13:56:21Z</time>
      </trkpt>
      <trkpt lat="44.47819" lon="-1.14255">
        <ele>20</ele>
        <time>2016-09-23T13:56:46Z</time>
      </trkpt>
      <trkpt lat="44.47706" lon="-1.14277">
        <ele>20</ele>
        <time>2016-09-23T13:57:39Z</time>
      </trkpt>
      <trkpt lat="44.47587" lon="-1.14282">
        <ele>20</ele>
        <time>2016-09-23T13:58:29Z</time>
      </trkpt>
      <trkpt lat="44.47472" lon="-1.14271">
        <ele>20</ele>
        <time>2016-09-23T13:59:25Z</time>
      </trkpt>
      <trkpt lat="44.47363" lon="-1.14245">
        <ele>20</ele>
        <time>2016-09-23T14:00:25Z</time>
      </trkpt>
      <trkpt lat="44.4726" lon="-1.14214">
        <ele>20</ele>
        <time>2016-09-23T14:01:16Z</time>
      </trkpt>
      <trkpt lat="44.47154" lon="-1.14163">
        <ele>20</ele>
        <time>2016-09-23T14:02:16Z</time>
      </trkpt>
      <trkpt lat="44.47053" lon="-1.14115">
        <ele>20</ele>
        <time>2016-09-23T14:03:12Z</time>
      </trkpt>
      <trkpt lat="44.46953" lon="-1.14063">
        <ele>20</ele>
        <time>2016-09-23T14:04:12Z</time>
      </trkpt>
      <trkpt lat="44.46851" lon="-1.14">
        <ele>20</ele>
        <time>2016-09-23T14:05:20Z</time>
      </trkpt>
      <trkpt lat="44.4675" lon="-1.13947">
        <ele>20</ele>
        <time>2016-09-23T14:06:26Z</time>
      </trkpt>
      <trkpt lat="44.46656" lon="-1.13879">
        <ele>20</ele>
        <time>2016-09-23T14:07:29Z</time>
      </trkpt>
      <trkpt lat="44.46658" lon="-1.13753">
        <ele>20</ele>
        <time>2016-09-23T14:08:25Z</time>
      </trkpt>
      <trkpt lat="44.46721" lon="-1.13662">
        <ele>20</ele>
        <time>2016-09-23T14:09:07Z</time>
      </trkpt>
      <trkpt lat="44.46778" lon="-1.13578">
        <ele>20</ele>
        <time>2016-09-23T14:09:44Z</time>
      </trkpt>
      <trkpt lat="44.4684" lon="-1.13492">
        <ele>20</ele>
        <time>2016-09-23T14:10:21Z</time>
      </trkpt>
      <trkpt lat="44.46903" lon="-1.13421">
        <ele>20</ele>
        <time>2016-09-23T14:10:57Z</time>
      </trkpt>
      <trkpt lat="44.46972" lon="-1.13352">
        <ele>20</ele>
        <time>2016-09-23T14:11:37Z</time>
      </trkpt>
      <trkpt lat="44.47037" lon="-1.13285">
        <ele>20</ele>
        <time>2016-09-23T14:12:28Z</time>
      </trkpt>
      <trkpt lat="44.47106" lon="-1.13221">
        <ele>20</ele>
        <time>2016-09-23T14:13:38Z</time>
      </trkpt>
      <trkpt lat="44.47175" lon="-1.13168">
        <ele>20</ele>
        <time>2016-09-23T14:14:26Z</time>
      </trkpt>
      <trkpt lat="44.47251" lon="-1.1311">
        <ele>20</ele>
        <time>2016-09-23T14:15:15Z</time>
      </trkpt>
      <trkpt lat="44.47321" lon="-1.1305">
        <ele>20</ele>
        <time>2016-09-23T14:15:57Z</time>
      </trkpt>
      <trkpt lat="44.47397" lon="-1.13003">
        <ele>20</ele>
        <time>2016-09-23T14:16:39Z</time>
      </trkpt>
      <trkpt lat="44.47471" lon="-1.12947">
        <ele>20</ele>
        <time>2016-09-23T14:17:24Z</time>
      </trkpt>
      <trkpt lat="44.4753" lon="-1.12867">
        <ele>20</ele>
        <time>2016-09-23T14:18:21Z</time>
      </trkpt>
      <trkpt lat="44.47571" lon="-1.1276">
        <ele>20</ele>
        <time>2016-09-23T14:19:29Z</time>
      </trkpt>
      <trkpt lat="44.47609" lon="-1.12658">
        <ele>20</ele>
        <time>2016-09-23T14:20:27Z</time>
      </trkpt>
      <trkpt lat="44.47659" lon="-1.12565">
        <ele>20</ele>
        <time>2016-09-23T14:21:24Z</time>
      </trkpt>
      <trkpt lat="44.47709" lon="-1.12475">
        <ele>20</ele>
        <time>2016-09-23T14:22:13Z</time>
      </trkpt>
      <trkpt lat="44.47771" lon="-1.12408">
        <ele>20</ele>
        <time>2016-09-23T14:23:02Z</time>
      </trkpt>
      <trkpt lat="44.4783" lon="-1.12329">
        <ele>20</ele>
        <time>2016-09-23T14:24:12Z</time>
      </trkpt>
      <trkpt lat="44.47887" lon="-1.12245">
        <ele>20</ele>
        <time>2016-09-23T14:25:12Z</time>
      </trkpt>
      <trkpt lat="44.47946" lon="-1.12172">
        <ele>20</ele>
        <time>2016-09-23T14:26:01Z</time>
      </trkpt>
      <trkpt lat="44.48008" lon="-1.12098">
        <ele>20</ele>
        <time>2016-09-23T14:26:50Z</time>
      </trkpt>
      <trkpt lat="44.48066" lon="-1.12013">
        <ele>20</ele>
        <time>2016-09-23T14:27:38Z</time>
      </trkpt>
      <trkpt lat="44.48123" lon="-1.11917">
        <ele>20</ele>
        <time>2016-09-23T14:29:01Z</time>
      </trkpt>
      <trkpt lat="44.48161" lon="-1.11986">
        <ele>20</ele>
        <time>2016-09-23T14:30:08Z</time>
      </trkpt>
      <trkpt lat="44.48221" lon="-1.12089">
        <ele>20</ele>
        <time>2016-09-23T14:31:37Z</time>
      </trkpt>
      <trkpt lat="44.48256" lon="-1.12018">
        <ele>20</ele>
        <time>2016-09-23T14:35:29Z</time>
      </trkpt>
      <trkpt lat="44.48311" lon="-1.1191">
        <ele>20</ele>
        <time>2016-09-23T14:36:34Z</time>
      </trkpt>
      <trkpt lat="44.48367" lon="-1.118">
        <ele>20</ele>
        <time>2016-09-23T14:37:36Z</time>
      </trkpt>
      <trkpt lat="44.48409" lon="-1.11693">
        <ele>20</ele>
        <time>2016-09-23T14:38:24Z</time>
      </trkpt>
      <trkpt lat="44.48445" lon="-1.1159">
        <ele>20</ele>
        <time>2016-09-23T14:39:12Z</time>
      </trkpt>
      <trkpt lat="44.4848" lon="-1.11484">
        <ele>20</ele>
        <time>2016-09-23T14:40:05Z</time>
      </trkpt>
      <trkpt lat="44.48525" lon="-1.11378">
        <ele>20</ele>
        <time>2016-09-23T14:41:12Z</time>
      </trkpt>
      <trkpt lat="44.48577" lon="-1.11282">
        <ele>20</ele>
        <time>2016-09-23T14:42:01Z</time>
      </trkpt>
      <trkpt lat="44.48616" lon="-1.11175">
        <ele>20</ele>
        <time>2016-09-23T14:42:38Z</time>
      </trkpt>
      <trkpt lat="44.48639" lon="-1.11062">
        <ele>20</ele>
        <time>2016-09-23T14:43:14Z</time>
      </trkpt>
      <trkpt lat="44.48665" lon="-1.10953">
        <ele>20</ele>
        <time>2016-09-23T14:43:52Z</time>
      </trkpt>
      <trkpt lat="44.48687" lon="-1.10827">
        <ele>20</ele>
        <time>2016-09-23T14:44:40Z</time>
      </trkpt>
      <trkpt lat="44.48708" lon="-1.10695">
        <ele>20</ele>
        <time>2016-09-23T14:45:31Z</time>
      </trkpt>
      <trkpt lat="44.48773" lon="-1.10725">
        <ele>20</ele>
        <time>2016-09-23T14:46:17Z</time>
      </trkpt>
      <trkpt lat="44.48821" lon="-1.10784">
        <ele>20</ele>
        <time>2016-09-23T14:47:09Z</time>
      </trkpt>
      <trkpt lat="44.48847" lon="-1.10691">
        <ele>20</ele>
        <time>2016-09-23T14:48:10Z</time>
      </trkpt>
      <trkpt lat="44.48885" lon="-1.10601">
        <ele>20</ele>
        <time>2016-09-23T14:48:59Z</time>
      </trkpt>
      <trkpt lat="44.48903" lon="-1.1049">
        <ele>20</ele>
        <time>2016-09-23T14:49:51Z</time>
      </trkpt>
      <trkpt lat="44.48911" lon="-1.10372">
        <ele>20</ele>
        <time>2016-09-23T14:50:30Z</time>
      </trkpt>
      <trkpt lat="44.48925" lon="-1.10255">
        <ele>20</ele>
        <time>2016-09-23T14:51:11Z</time>
      </trkpt>
      <trkpt lat="44.48936" lon="-1.1014">
        <ele>20</ele>
        <time>2016-09-23T14:51:52Z</time>
      </trkpt>
      <trkpt lat="44.48942" lon="-1.10029">
        <ele>20</ele>
        <time>2016-09-23T14:52:42Z</time>
      </trkpt>
      <trkpt lat="44.48949" lon="-1.09911">
        <ele>20</ele>
        <time>2016-09-23T14:53:35Z</time>
      </trkpt>
      <trkpt lat="44.48951" lon="-1.0979">
        <ele>20</ele>
        <time>2016-09-23T14:54:33Z</time>
      </trkpt>
      <trkpt lat="44.48963" lon="-1.09678">
        <ele>20</ele>
        <time>2016-09-23T14:55:22Z</time>
      </trkpt>
      <trkpt lat="44.48977" lon="-1.09567">
        <ele>20</ele>
        <time>2016-09-23T14:55:58Z</time>
      </trkpt>
      <trkpt lat="44.48986" lon="-1.09448">
        <ele>20</ele>
        <time>2016-09-23T14:56:43Z</time>
      </trkpt>
      <trkpt lat="44.48996" lon="-1.09338">
        <ele>20</ele>
        <time>2016-09-23T14:57:28Z</time>
      </trkpt>
      <trkpt lat="44.49012" lon="-1.09222">
        <ele>20</ele>
        <time>2016-09-23T14:58:34Z</time>
      </trkpt>
      <trkpt lat="44.49042" lon="-1.09112">
        <ele>20</ele>
        <time>2016-09-23T14:59:16Z</time>
      </trkpt>
      <trkpt lat="44.49065" lon="-1.09005">
        <ele>20</ele>
        <time>2016-09-23T14:59:55Z</time>
      </trkpt>
      <trkpt lat="44.49087" lon="-1.08899">
        <ele>20</ele>
        <time>2016-09-23T15:00:34Z</time>
      </trkpt>
      <trkpt lat="44.49112" lon="-1.08786">
        <ele>20</ele>
        <time>2016-09-23T15:01:16Z</time>
      </trkpt>
      <trkpt lat="44.49129" lon="-1.08676">
        <ele>20</ele>
        <time>2016-09-23T15:02:04Z</time>
      </trkpt>
      <trkpt lat="44.49153" lon="-1.08563">
        <ele>20</ele>
        <time>2016-09-23T15:02:52Z</time>
      </trkpt>
      <trkpt lat="44.49182" lon="-1.08447">
        <ele>20</ele>
        <time>2016-09-23T15:03:37Z</time>
      </trkpt>
      <trkpt lat="44.49212" lon="-1.08346">
        <ele>20</ele>
        <time>2016-09-23T15:04:22Z</time>
      </trkpt>
      <trkpt lat="44.4926" lon="-1.08246">
        <ele>20</ele>
        <time>2016-09-23T15:05:04Z</time>
      </trkpt>
      <trkpt lat="44.49298" lon="-1.08143">
        <ele>20</ele>
        <time>2016-09-23T15:05:54Z</time>
      </trkpt>
      <trkpt lat="44.49349" lon="-1.08052">
        <ele>20</ele>
        <time>2016-09-23T15:06:53Z</time>
      </trkpt>
      <trkpt lat="44.49417" lon="-1.07985">
        <ele>21</ele>
        <time>2016-09-23T15:13:04Z</time>
      </trkpt>
    </trkseg>
  </trk>
</gpx>